Terminal Aerodrome Forecast
Issued by NWS Boston, MA

Home | Current Version | Previous Version | Text Only | Print | Product List | Glossary On
Versions: 1 2 3 4 5 6 7 8 9 10 11 12 13 14 15 16 17 18 19 20 21 22
000
FTUS41 KBOX 232320
TAFPVD
TAF
KPVD 232320Z 2400/2424 21011G22KT P6SM OVC015 WS020/23040KT
     FM240200 21011KT 6SM BR VCSH OVC015 WS020/23040KT
     FM240800 22010G19KT 5SM BR VCTS BKN015CB
     FM241000 22009KT 5SM BR VCTS OVC025CB
     FM241200 23011G21KT 6SM -SHRA OVC025
     FM241500 24008KT P6SM VCSH BKN050
     FM242000 28010G17KT P6SM SCT250=

USA.gov is the U.S. government's official web portal to all federal, state and local government web resources and services.